.
WxDataArchive / Data Records for 2013-11-05
2013-11-04 November 2013 2013-11-06

Data Records for Tuesday, 05 November 2013

Time	Temp	Chill	HIndex	Humid	Dewpt	 Wind 	HiWind	WindDir	Rain 	Barom 
-----	----	-----	------	-----	-----	------	------	-------	-----	----- 
00:00	47.0	47.0	47.0	75	39.5	0	0	---	0.00	30.290 
00:05	47.0	47.0	47.0	75	39.5	0	0	---	0.00	30.290 
00:10	46.8	46.8	46.8	76	39.6	0	0	---	0.00	30.290 
00:15	46.8	46.8	46.8	76	39.6	0	0	---	0.00	30.283 
00:20	46.7	46.7	46.7	76	39.5	0	0	---	0.00	30.283 
00:25	46.7	46.7	46.7	76	39.5	0	0	---	0.00	30.283 
00:30	46.7	46.7	46.7	76	39.5	0	1	68	0.00	30.285 
00:35	46.5	46.5	46.5	76	39.3	0	0	---	0.00	30.285 
00:40	46.5	46.5	46.5	77	39.7	0	0	---	0.00	30.285 
00:45	46.4	46.4	46.4	77	39.6	0	0	---	0.00	30.291 
00:50	46.4	46.4	46.4	77	39.6	0	1	68	0.00	30.291 
00:55	46.5	46.5	46.5	77	39.7	0	0	---	0.00	30.291 
01:00	46.4	46.4	46.4	77	39.6	0	0	---	0.00	30.292 
01:05	46.4	46.4	46.4	77	39.6	0	1	68	0.00	30.292 
01:10	46.4	46.4	46.4	77	39.6	0	0	---	0.00	30.292 
01:15	46.4	46.4	46.4	77	39.6	0	0	---	0.00	30.289 
01:20	46.2	46.2	46.2	77	39.4	0	1	68	0.00	30.289 
01:25	46.2	46.2	46.2	77	39.4	0	0	---	0.00	30.289 
01:30	46.2	46.2	46.2	77	39.4	0	1	68	0.00	30.292 
01:35	46.2	46.2	46.2	78	39.7	0	1	68	0.00	30.292 
01:40	46.2	46.2	46.2	78	39.7	0	1	68	0.00	30.292 
01:45	46.4	46.4	46.4	78	39.9	0	1	68	0.00	30.292 
01:50	46.4	46.4	46.4	78	39.9	0	0	---	0.00	30.292 
01:55	46.5	46.5	46.5	78	40.0	0	0	---	0.00	30.292 
02:00	46.7	46.7	46.7	77	39.9	0	1	68	0.00	30.285 
02:05	46.7	46.7	46.7	77	39.9	0	0	---	0.00	30.285 
02:10	46.7	46.7	46.7	77	39.9	0	0	---	0.00	30.285 
02:15	46.5	46.5	46.5	77	39.7	0	0	---	0.00	30.292 
02:20	46.4	46.4	46.4	77	39.6	0	0	---	0.00	30.292 
02:25	46.2	46.2	46.2	77	39.4	0	0	---	0.00	30.292 
02:30	46.0	46.0	46.0	77	39.2	0	0	---	0.00	30.295 
02:35	45.8	45.8	45.8	78	39.3	0	0	---	0.00	30.295 
02:40	45.7	45.7	45.7	78	39.2	0	0	---	0.00	30.295 
02:45	45.4	45.4	45.4	79	39.3	0	0	---	0.00	30.297 
02:50	45.2	45.2	45.2	79	39.1	0	0	---	0.00	30.297 
02:55	45.1	45.1	45.1	79	39.0	0	0	---	0.00	30.297 
03:00	44.9	44.9	44.9	80	39.1	0	0	---	0.00	30.298 
03:05	44.8	44.8	44.8	80	39.0	0	0	---	0.00	30.298 
03:10	44.6	44.6	44.6	80	38.8	0	0	---	0.00	30.298 
03:15	44.5	44.5	44.5	81	39.0	0	0	---	0.00	30.296 
03:20	44.3	44.3	44.3	81	38.8	0	0	---	0.00	30.296 
03:25	44.2	44.2	44.2	81	38.7	0	0	---	0.00	30.296 
03:30	44.1	44.1	44.1	81	38.6	0	0	---	0.00	30.299 
03:35	43.9	43.9	43.9	82	38.8	0	0	---	0.00	30.299 
03:40	43.8	43.8	43.8	82	38.7	0	0	---	0.00	30.299 
03:45	43.6	43.6	43.6	83	38.8	0	0	---	0.00	30.304 
03:50	43.6	43.6	43.6	83	38.8	0	0	---	0.00	30.304 
03:55	43.6	43.6	43.6	83	38.8	0	0	---	0.00	30.304 
04:00	43.6	43.6	43.6	84	39.1	0	0	---	0.00	30.299 
04:05	43.6	43.6	43.6	84	39.1	0	0	---	0.00	30.299 
04:10	43.6	43.6	43.6	84	39.1	0	0	---	0.00	30.299 
04:15	43.5	43.5	43.5	84	39.0	0	0	---	0.00	30.296 
04:20	43.3	43.3	43.3	84	38.8	0	0	---	0.00	30.296 
04:25	43.3	43.3	43.3	84	38.8	0	0	---	0.00	30.296 
04:30	43.2	43.2	43.2	84	38.7	0	0	---	0.00	30.298 
04:35	43.2	43.2	43.2	84	38.7	0	0	---	0.00	30.298 
04:40	43.2	43.2	43.2	85	39.0	0	0	---	0.00	30.298 
04:45	43.3	43.3	43.3	85	39.1	0	0	---	0.00	30.303 
04:50	43.3	43.3	43.3	85	39.1	0	0	---	0.00	30.303 
04:55	43.5	43.5	43.5	85	39.3	0	0	---	0.00	30.303 
05:00	43.8	43.8	43.8	85	39.6	0	0	---	0.00	30.310 
05:05	43.9	43.9	43.9	85	39.7	0	0	---	0.00	30.310 
05:10	44.1	44.1	44.1	85	39.9	0	0	---	0.00	30.310 
05:15	44.1	44.1	44.1	85	39.9	0	0	---	0.00	30.309 
05:20	44.3	44.3	44.3	85	40.1	0	0	---	0.00	30.309 
05:25	44.5	44.5	44.5	84	40.0	0	0	---	0.00	30.309 
05:30	44.6	44.6	44.6	84	40.1	0	0	---	0.00	30.310 
05:35	44.8	44.8	44.8	84	40.3	0	0	---	0.00	30.310 
05:40	44.9	44.9	44.9	84	40.4	0	0	---	0.00	30.310 
05:45	45.1	45.1	45.1	84	40.6	0	0	---	0.00	30.311 
05:50	45.4	45.4	45.4	83	40.5	0	0	---	0.00	30.311 
05:55	45.4	45.4	45.4	83	40.5	0	0	---	0.00	30.311 
06:00	45.5	45.5	45.5	82	40.3	0	0	---	0.00	30.310 
06:05	45.5	45.5	45.5	82	40.3	0	0	---	0.00	30.310 
06:10	45.7	45.7	45.7	82	40.5	0	0	---	0.00	30.310 
06:15	45.7	45.7	45.7	82	40.5	0	0	---	0.00	30.313 
06:20	45.7	45.7	45.7	81	40.2	0	0	---	0.00	30.313 
06:25	45.7	45.7	45.7	81	40.2	0	0	---	0.00	30.313 
06:30	45.7	45.7	45.7	81	40.2	0	0	---	0.00	30.316 
06:35	45.7	45.7	45.7	81	40.2	0	0	---	0.00	30.316 
06:40	45.5	45.5	45.5	81	40.0	0	0	---	0.00	30.316 
06:45	45.5	45.5	45.5	81	40.0	0	0	---	0.00	30.312 
06:50	45.4	45.4	45.4	81	39.9	0	0	---	0.00	30.312 
06:55	45.4	45.4	45.4	81	39.9	0	0	---	0.00	30.312 
07:00	45.4	45.4	45.4	81	39.9	0	0	---	0.00	30.320 
07:05	45.4	45.4	45.4	81	39.9	0	0	---	0.00	30.320 
07:10	45.5	45.5	45.5	81	40.0	0	0	---	0.00	30.320 
07:15	45.7	45.7	45.7	81	40.2	0	1	68	0.00	30.322 
07:20	45.8	45.8	45.8	81	40.3	0	0	---	0.00	30.322 
07:25	46.0	46.0	46.0	81	40.5	0	0	---	0.00	30.322 
07:30	46.1	46.1	46.1	81	40.6	0	0	---	0.00	30.322 
07:35	46.1	46.1	46.1	81	40.6	0	0	---	0.00	30.322 
07:40	46.2	46.2	46.2	80	40.4	0	0	---	0.00	30.322 
07:45	46.2	46.2	46.2	80	40.4	0	0	---	0.00	30.330 
07:50	46.4	46.4	46.4	80	40.6	0	0	---	0.00	30.330 
07:55	46.4	46.4	46.4	80	40.6	0	0	---	0.00	30.330 
08:00	46.5	46.5	46.5	80	40.7	0	0	---	0.00	30.325 
08:05	46.7	46.7	46.7	80	40.9	0	0	---	0.00	30.325 
08:10	46.8	46.8	46.8	80	41.0	0	0	---	0.00	30.325 
08:15	47.0	47.0	47.0	80	41.2	0	0	---	0.00	30.328 
08:20	47.0	47.0	47.0	80	41.2	0	0	---	0.00	30.328 
08:25	47.1	47.1	47.1	80	41.3	0	0	---	0.00	30.328 
08:30	47.3	47.3	47.3	80	41.4	0	0	---	0.00	30.333 
08:35	47.6	47.6	47.6	80	41.7	0	0	---	0.00	30.333 
08:40	47.7	47.7	47.7	80	41.8	0	0	---	0.00	30.333 
08:45	48.0	48.0	48.0	80	42.1	0	1	68	0.00	30.337 
08:50	48.2	48.2	48.2	80	42.3	0	1	68	0.00	30.337 
08:55	48.5	48.5	48.5	80	42.6	0	1	68	0.00	30.337 
09:00	48.8	48.8	48.8	79	42.6	0	1	68	0.00	30.346 
09:05	48.9	48.9	48.9	79	42.7	0	2	68	0.00	30.346 
09:10	49.2	49.2	49.2	79	43.0	0	1	68	0.00	30.346 
09:15	49.4	49.4	49.4	79	43.2	0	2	68	0.00	30.353 
09:20	49.6	49.6	49.6	80	43.7	0	2	68	0.00	30.353 
09:25	49.8	49.8	49.8	80	43.9	0	2	68	0.00	30.353 
09:30	49.9	49.9	49.9	81	44.3	0	1	68	0.00	30.348 
09:35	49.9	49.9	49.9	82	44.6	0	1	68	0.00	30.348 
09:40	49.9	49.9	49.9	82	44.6	0	1	68	0.00	30.348 
09:45	50.1	50.1	50.1	83	45.1	0	0	---	0.00	30.341 
09:50	50.1	50.1	50.1	84	45.5	0	1	68	0.00	30.341 
09:55	50.2	50.2	50.2	84	45.6	0	0	---	0.01	30.341 
10:00	50.2	50.2	50.2	84	45.6	0	1	68	0.00	30.340 
10:05	50.4	50.4	50.4	85	46.1	0	0	---	0.00	30.340 
10:10	50.5	50.5	50.5	85	46.2	0	0	---	0.00	30.340 
10:15	50.7	50.7	50.7	85	46.4	0	0	---	0.00	30.338 
10:20	50.7	50.7	50.7	86	46.7	0	0	---	0.00	30.338 
10:25	50.8	50.8	50.8	86	46.8	0	1	68	0.00	30.338 
10:30	50.8	50.8	50.8	86	46.8	0	1	68	0.00	30.340 
10:35	50.8	50.8	50.8	86	46.8	0	1	68	0.00	30.340 
10:40	51.0	51.0	51.0	86	47.0	0	0	---	0.00	30.340 
10:45	51.0	51.0	51.0	86	47.0	0	1	68	0.00	30.342 
10:50	51.0	51.0	51.0	86	47.0	0	2	68	0.00	30.342 
10:55	51.0	51.0	51.0	86	47.0	0	1	68	0.00	30.342 
11:00	51.1	51.1	51.1	86	47.1	0	2	68	0.00	30.351 
11:05	51.3	51.3	51.3	86	47.3	0	2	68	0.00	30.351 
11:10	51.4	51.4	51.4	86	47.4	0	1	68	0.00	30.351 
11:15	51.6	51.6	51.6	86	47.5	0	1	68	0.00	30.351 
11:20	51.7	51.7	51.7	86	47.6	0	1	68	0.00	30.351 
11:25	51.7	51.7	51.7	86	47.6	0	2	68	0.00	30.351 
11:30	51.7	51.7	51.7	86	47.6	0	1	68	0.00	30.348 
11:35	51.7	51.7	51.7	86	47.6	0	1	68	0.00	30.348 
11:40	51.9	51.9	51.9	86	47.8	0	1	68	0.00	30.348 
11:45	51.9	51.9	51.9	86	47.8	0	0	---	0.00	30.340 
11:50	51.9	51.9	51.9	86	47.8	0	0	---	0.00	30.340 
11:55	51.9	51.9	51.9	87	48.2	0	2	68	0.00	30.340 
12:00	52.2	52.2	52.2	87	48.4	0	1	68	0.00	30.337 
12:05	52.3	52.3	52.3	87	48.5	0	2	68	0.00	30.337 
12:10	52.3	52.3	52.3	86	48.2	0	2	68	0.00	30.337 
12:15	52.5	52.5	52.5	86	48.4	0	2	68	0.00	30.333 
12:20	52.5	52.5	52.5	86	48.4	0	2	68	0.00	30.333 
12:25	52.6	52.6	52.6	86	48.5	0	2	68	0.00	30.333 
12:30	52.8	52.8	52.8	85	48.4	0	1	68	0.00	30.335 
12:35	52.8	52.8	52.8	85	48.4	0	1	68	0.00	30.335 
12:40	52.9	52.9	52.9	85	48.5	0	1	68	0.00	30.335 
12:45	53.1	53.1	53.1	85	48.7	0	1	68	0.00	30.322 
12:50	53.2	53.2	53.2	85	48.8	0	1	68	0.00	30.322 
12:55	53.3	53.3	53.3	84	48.6	0	1	68	0.00	30.322 
13:00	53.5	53.5	53.5	84	48.8	0	2	68	0.00	30.316 
13:05	53.6	53.6	53.6	84	48.9	0	2	68	0.00	30.316 
13:10	53.9	53.9	53.9	83	48.9	0	3	68	0.00	30.316 
13:15	54.2	54.2	54.2	82	48.8	0	2	68	0.00	30.305 
13:20	54.4	54.4	54.4	81	48.7	0	1	68	0.00	30.305 
13:25	54.4	54.4	54.4	79	48.0	0	3	68	0.00	30.305 
13:30	54.5	54.5	54.5	78	47.8	0	1	90	0.00	30.290 
13:35	54.7	54.7	54.7	78	48.0	0	2	90	0.00	30.290 
13:40	54.7	54.7	54.7	77	47.6	0	2	180	0.00	30.290 
13:45	54.8	54.8	54.8	76	47.4	0	2	180	0.00	30.301 
13:50	55.0	55.0	55.0	77	47.9	0	1	180	0.00	30.301 
13:55	55.1	55.1	55.1	76	47.7	0	1	180	0.00	30.301 
14:00	55.3	55.3	55.3	75	47.5	0	2	180	0.00	30.293 
14:05	55.3	55.3	55.3	75	47.5	0	1	180	0.00	30.293 
14:10	55.6	55.6	55.6	76	48.2	0	1	180	0.00	30.293 
14:15	55.7	55.7	55.7	76	48.3	0	0	---	0.00	30.284 
14:20	55.7	55.7	55.7	75	47.9	0	1	180	0.00	30.284 
14:25	55.7	55.7	55.7	74	47.5	0	1	180	0.00	30.284 
14:30	55.9	55.9	55.9	75	48.1	0	0	---	0.00	30.286 
14:35	56.0	56.0	56.0	74	47.8	0	1	180	0.00	30.286 
14:40	56.2	56.2	56.2	73	47.7	0	1	180	0.00	30.286 
14:45	56.3	56.3	56.3	73	47.8	0	1	180	0.00	30.286 
14:50	56.5	56.5	56.5	71	47.2	0	1	180	0.00	30.286 
14:55	56.5	56.5	56.5	69	46.5	0	3	68	0.00	30.286 
15:00	56.5	56.5	56.5	69	46.5	0	3	68	0.00	30.273 
15:05	56.5	56.5	56.5	68	46.1	0	2	68	0.00	30.273 
15:10	56.5	56.5	56.5	68	46.1	0	1	68	0.00	30.273 
15:15	56.3	56.3	56.3	67	45.5	1	3	68	0.00	30.270 
15:20	56.2	56.2	56.2	67	45.4	0	2	68	0.00	30.270 
15:25	56.2	56.2	56.2	66	45.0	1	3	68	0.00	30.270 
15:30	56.0	56.0	56.0	66	44.8	0	2	112	0.00	30.259 
15:35	56.0	56.0	56.0	67	45.2	0	2	112	0.00	30.259 
15:40	56.0	56.0	56.0	67	45.2	0	2	112	0.00	30.259 
15:45	56.0	56.0	56.0	67	45.2	0	1	112	0.00	30.268 
15:50	56.0	56.0	56.0	66	44.8	1	3	112	0.00	30.268 
15:55	56.0	56.0	56.0	67	45.2	0	2	112	0.00	30.268 
16:00	56.0	56.0	56.0	67	45.2	0	1	112	0.00	30.258 
16:05	55.9	55.9	55.9	68	45.5	0	1	112	0.00	30.258 
16:10	55.9	55.9	55.9	69	45.9	0	0	---	0.00	30.258 
16:15	55.9	55.9	55.9	69	45.9	0	0	---	0.00	30.257 
16:20	55.7	55.7	55.7	69	45.7	0	0	---	0.00	30.257 
16:25	55.7	55.7	55.7	68	45.3	0	1	112	0.00	30.257 
16:30	55.7	55.7	55.7	68	45.3	0	1	112	0.00	30.245 
16:35	55.9	55.9	55.9	69	45.9	0	1	112	0.00	30.245 
16:40	55.9	55.9	55.9	69	45.9	0	0	---	0.00	30.245 
16:45	55.7	55.7	55.7	69	45.7	0	1	112	0.00	30.244 
16:50	55.6	55.6	55.6	69	45.6	0	0	---	0.00	30.244 
16:55	55.4	55.4	55.4	70	45.8	0	0	---	0.00	30.244 
17:00	55.3	55.3	55.3	70	45.7	0	0	---	0.00	30.251 
17:05	55.1	55.1	55.1	70	45.5	0	0	---	0.00	30.251 
17:10	55.1	55.1	55.1	70	45.5	0	1	112	0.00	30.251 
17:15	55.0	55.0	55.0	70	45.4	0	1	112	0.00	30.247 
17:20	54.8	54.8	54.8	70	45.2	0	1	112	0.00	30.247 
17:25	54.8	54.8	54.8	69	44.8	0	1	112	0.00	30.247 
17:30	54.8	54.8	54.8	69	44.8	0	1	112	0.00	30.243 
17:35	54.7	54.7	54.7	69	44.7	0	2	112	0.00	30.243 
17:40	54.5	54.5	54.5	69	44.5	0	3	112	0.00	30.243 
17:45	54.5	54.5	54.5	69	44.5	0	2	112	0.00	30.244 
17:50	54.4	54.4	54.4	69	44.4	0	2	112	0.00	30.244 
17:55	54.4	54.4	54.4	69	44.4	0	2	112	0.00	30.244 
18:00	54.4	54.4	54.4	69	44.4	0	3	112	0.00	30.243 
18:05	54.4	54.4	54.4	69	44.4	0	2	112	0.00	30.243 
18:10	54.2	54.2	54.2	69	44.3	0	3	112	0.00	30.243 
18:15	54.2	54.2	54.2	69	44.3	0	2	112	0.00	30.242 
18:20	54.1	54.1	54.1	69	44.2	0	3	112	0.00	30.242 
18:25	54.1	54.1	54.1	69	44.2	0	1	112	0.00	30.242 
18:30	53.9	53.9	53.9	69	44.0	0	2	112	0.00	30.238 
18:35	53.8	53.8	53.8	69	43.9	0	1	112	0.00	30.238 
18:40	53.8	53.8	53.8	69	43.9	0	3	112	0.00	30.238 
18:45	53.6	53.6	53.6	69	43.7	1	3	135	0.00	30.238 
18:50	53.5	53.5	53.5	69	43.6	0	2	135	0.00	30.238 
18:55	53.5	53.5	53.5	69	43.6	1	4	90	0.00	30.238 
19:00	53.5	53.5	53.5	69	43.6	0	2	90	0.00	30.232 
19:05	53.5	53.5	53.5	70	44.0	0	2	90	0.00	30.232 
19:10	53.5	53.5	53.5	70	44.0	0	3	112	0.00	30.232 
19:15	53.3	53.3	53.3	70	43.8	0	1	112	0.00	30.231 
19:20	53.3	53.3	53.3	70	43.8	0	1	112	0.00	30.231 
19:25	53.2	53.2	53.2	70	43.7	0	1	112	0.00	30.231 
19:30	53.2	53.2	53.2	70	43.7	0	2	112	0.00	30.226 
19:35	53.2	53.2	53.2	70	43.7	0	1	112	0.00	30.226 
19:40	53.1	53.1	53.1	70	43.6	0	2	112	0.00	30.226 
19:45	53.1	53.1	53.1	70	43.6	0	2	112	0.00	30.225 
19:50	53.2	53.2	53.2	70	43.7	0	3	112	0.00	30.225 
19:55	53.2	53.2	53.2	70	43.7	1	3	112	0.00	30.225 
20:00	53.3	53.3	53.3	70	43.8	0	2	112	0.00	30.223 
20:05	53.3	53.3	53.3	70	43.8	1	3	90	0.00	30.223 
20:10	53.3	53.3	53.3	70	43.8	1	4	112	0.00	30.223 
20:15	53.3	53.3	53.3	70	43.8	0	2	112	0.00	30.221 
20:20	53.3	53.3	53.3	70	43.8	0	3	112	0.00	30.221 
20:25	53.3	53.3	53.3	70	43.8	0	2	112	0.00	30.221 
20:30	53.3	53.3	53.3	70	43.8	1	2	112	0.00	30.210 
20:35	53.3	53.3	53.3	70	43.8	1	3	112	0.00	30.210 
20:40	53.3	53.3	53.3	69	43.4	0	3	112	0.00	30.210 
20:45	53.3	53.3	53.3	70	43.8	0	2	112	0.00	30.208 
20:50	53.3	53.3	53.3	69	43.4	1	3	112	0.00	30.208 
20:55	53.3	53.3	53.3	69	43.4	0	2	135	0.00	30.208 
21:00	53.3	53.3	53.3	69	43.4	1	3	135	0.00	30.198 
21:05	53.3	53.3	53.3	69	43.4	1	3	135	0.00	30.198 
21:10	53.5	53.5	53.5	69	43.6	1	2	135	0.00	30.198 
21:15	53.5	53.5	53.5	69	43.6	0	2	135	0.00	30.193 
21:20	53.5	53.5	53.5	68	43.2	1	3	135	0.00	30.193 
21:25	53.6	53.6	53.6	68	43.3	1	3	112	0.00	30.193 
21:30	53.6	53.6	53.6	67	42.9	0	2	112	0.00	30.187 
21:35	53.8	53.8	53.8	67	43.1	1	3	90	0.00	30.187 
21:40	53.8	53.8	53.8	66	42.7	1	3	90	0.00	30.187 
21:45	53.9	53.9	53.9	66	42.8	1	4	112	0.00	30.184 
21:50	53.9	53.9	53.9	66	42.8	1	4	112	0.00	30.184 
21:55	54.1	54.1	54.1	65	42.6	1	4	90	0.00	30.184 
22:00	54.1	54.1	54.1	65	42.6	1	4	90	0.00	30.180 
22:05	54.1	54.1	54.1	65	42.6	0	3	112	0.00	30.180 
22:10	54.1	54.1	54.1	65	42.6	1	4	112	0.00	30.180 
22:15	54.1	54.1	54.1	65	42.6	0	2	112	0.00	30.178 
22:20	54.1	54.1	54.1	65	42.6	0	4	112	0.00	30.178 
22:25	54.1	54.1	54.1	65	42.6	0	2	112	0.00	30.178 
22:30	53.9	53.9	53.9	65	42.4	0	4	112	0.00	30.174 
22:35	53.9	53.9	53.9	65	42.4	0	2	112	0.00	30.174 
22:40	53.9	53.9	53.9	65	42.4	0	2	90	0.00	30.174 
22:45	53.8	53.8	53.8	65	42.3	1	3	90	0.00	30.174 
22:50	53.8	53.8	53.8	64	41.9	1	5	90	0.00	30.174 
22:55	53.8	53.8	53.8	64	41.9	1	3	90	0.00	30.174 
23:00	53.8	53.8	53.8	64	41.9	0	2	112	0.00	30.163 
23:05	53.8	53.8	53.8	64	41.9	1	3	112	0.00	30.163 
23:10	53.8	53.8	53.8	64	41.9	1	3	68	0.00	30.163 
23:15	53.6	53.6	53.6	64	41.7	1	3	90	0.00	30.157 
23:20	53.6	53.6	53.6	64	41.7	1	4	112	0.00	30.157 
23:25	53.5	53.5	53.5	64	41.6	0	2	135	0.00	30.157 
23:30	53.3	53.3	53.3	64	41.4	1	3	135	0.00	30.145 
23:35	53.2	53.2	53.2	65	41.7	1	5	22	0.00	30.145 
23:40	53.2	53.2	53.2	65	41.7	1	3	135	0.00	30.145 
23:45	53.1	53.1	53.1	65	41.6	0	1	135	0.00	30.143 
23:50	53.1	53.1	53.1	65	41.6	1	3	90	0.00	30.143 
23:55	53.1	53.1	53.1	65	41.6	1	3	112	0.00	30.143 

CoCoRaHS
IN-AL-39
A2 Web Hosting
Creative Commons License
GoDaddy
search engine by freefind advanced

loaded 2018-11-13 17:10:19 • last modified 2010-11-18 10:43:29
Privacy PolicyDisclaimer
• wx.awcolley.com is powered by PmWiki v.2002016 •
• all content (unless otherwise noted) © 2018 A W Colley